createdAt,value
2022-09-21T00:01:28.745Z,5.65
2022-09-21T00:03:58.992Z,5.40
2022-09-21T00:06:28.398Z,5.85
2022-09-21T00:08:58.253Z,5.20
2022-09-21T00:11:29.176Z,5.60
2022-09-21T00:14:00.908Z,5.30
2022-09-21T00:16:29.138Z,5.60
2022-09-21T00:18:56.601Z,5.15
2022-09-21T00:21:24.572Z,5.25
2022-09-21T00:23:52.014Z,5.05
2022-09-21T00:26:22.491Z,5.68
2022-09-21T00:28:56.568Z,5.53
2022-09-21T00:31:24.456Z,5.68
2022-09-21T00:33:52.528Z,6.50
2022-09-21T00:36:22.110Z,6.78
2022-09-21T00:38:54.852Z,5.80
2022-09-21T00:41:22.446Z,5.93
2022-09-21T00:44:18.492Z,5.40
2022-09-21T00:46:48.296Z,5.50
2022-09-21T00:49:16.706Z,5.80
2022-09-21T00:51:45.190Z,5.90
2022-09-21T00:54:23.268Z,5.47
2022-09-21T00:56:51.028Z,5.07
2022-09-21T00:59:21.703Z,5.75
2022-09-21T01:01:51.508Z,5.40
2022-09-21T01:04:19.574Z,5.85
2022-09-21T01:06:48.042Z,6.03
2022-09-21T01:09:16.225Z,5.68
2022-09-21T01:11:59.448Z,6.05
2022-09-21T01:14:48.078Z,5.50
2022-09-21T01:17:36.568Z,6.03
2022-09-21T01:20:13.273Z,5.80
2022-09-21T01:22:58.183Z,6.15
2022-09-21T01:25:39.481Z,6.00
2022-09-21T01:28:38.239Z,6.03
2022-09-21T01:31:11.494Z,6.22
2022-09-21T01:33:48.792Z,6.05
2022-09-21T01:36:22.377Z,6.50
2022-09-21T01:38:52.233Z,5.47
2022-09-21T01:41:24.628Z,6.13
2022-09-21T01:44:08.684Z,5.97
2022-09-21T01:46:37.712Z,5.97
2022-09-21T01:49:25.062Z,5.60
2022-09-21T01:51:58.405Z,5.63
2022-09-21T01:54:41.608Z,5.57
2022-09-21T01:57:38.839Z,6.25
2022-09-21T02:00:08.299Z,5.18
2022-09-21T02:02:59.990Z,5.45
2022-09-21T02:05:30.504Z,5.07
2022-09-21T02:07:59.056Z,5.47
2022-09-21T02:10:37.112Z,5.75
2022-09-21T02:13:07.129Z,5.55
2022-09-21T02:15:49.845Z,5.80
2022-09-21T02:18:41.990Z,5.35
2022-09-21T02:21:22.051Z,6.20
2022-09-21T02:24:13.925Z,5.28
2022-09-21T02:26:48.444Z,6.18
2022-09-21T02:29:33.537Z,5.95
2022-09-21T02:32:09.513Z,5.85
2022-09-21T02:34:57.708Z,5.72
2022-09-21T02:37:31.381Z,5.70
2022-09-21T02:40:10.562Z,5.13
2022-09-21T02:42:42.428Z,5.10
2022-09-21T02:45:35.662Z,5.32
2022-09-21T02:48:18.763Z,4.47
2022-09-21T02:50:50.320Z,4.45
2022-09-21T02:53:33.338Z,5.07
2022-09-21T02:56:07.270Z,4.60
2022-09-21T02:58:49.958Z,4.97
2022-09-21T03:01:19.383Z,4.68
2022-09-21T03:03:47.109Z,4.45
2022-09-21T03:06:14.426Z,5.20
2022-09-21T03:08:41.881Z,4.32
2022-09-21T03:11:10.973Z,4.22
2022-09-21T03:13:38.374Z,4.80
2022-09-21T03:16:09.990Z,5.65
2022-09-21T03:18:37.476Z,5.45
2022-09-21T03:21:04.894Z,5.20
2022-09-21T03:23:32.061Z,5.90
2022-09-21T03:25:59.269Z,6.10
2022-09-21T03:28:26.847Z,7.40
2022-09-21T03:30:54.309Z,7.10
2022-09-21T03:33:21.950Z,7.18
2022-09-21T03:35:49.520Z,7.90
2022-09-21T03:38:17.024Z,8.48
2022-09-21T03:40:49.107Z,7.70
2022-09-21T03:43:17.704Z,8.43
2022-09-21T03:45:46.185Z,7.05
2022-09-21T03:48:14.146Z,7.22
2022-09-21T03:50:41.980Z,7.20
2022-09-21T03:53:10.501Z,7.15
2022-09-21T03:55:37.824Z,7.50
2022-09-21T03:58:05.376Z,7.72
2022-09-21T04:00:33.183Z,6.93
2022-09-21T04:03:02.242Z,7.07
2022-09-21T04:05:29.617Z,7.35
2022-09-21T04:07:57.193Z,7.10
2022-09-21T04:10:29.394Z,6.88
2022-09-21T04:13:01.664Z,6.57
2022-09-21T04:15:29.691Z,8.32
2022-09-21T04:17:57.108Z,8.73
2022-09-21T04:20:25.051Z,9.27
2022-09-21T04:22:52.801Z,8.27
2022-09-21T04:25:20.723Z,8.32
2022-09-21T04:27:48.180Z,8.23
2022-09-21T04:30:16.917Z,9.82
2022-09-21T04:32:44.698Z,9.80
2022-09-21T04:35:12.214Z,16.10
2022-09-21T04:37:39.469Z,11.25
2022-09-21T04:40:07.708Z,9.43
2022-09-21T04:42:35.062Z,9.15
2022-09-21T04:45:02.422Z,8.90
2022-09-21T04:47:31.151Z,8.27
2022-09-21T04:49:58.355Z,8.52
2022-09-21T04:52:25.905Z,8.65
2022-09-21T04:54:53.322Z,8.35
2022-09-21T04:57:20.739Z,9.77
2022-09-21T04:59:48.080Z,9.65
2022-09-21T05:02:15.395Z,8.95
2022-09-21T05:04:43.412Z,8.27
2022-09-21T05:07:11.880Z,7.78
2022-09-21T05:09:57.876Z,9.35
2022-09-21T05:12:25.244Z,8.93
2022-09-21T05:14:52.516Z,8.70
2022-09-21T05:17:22.903Z,8.82
2022-09-21T05:19:51.121Z,8.57
2022-09-21T05:22:18.606Z,8.07
2022-09-21T05:24:46.024Z,9.27
2022-09-21T05:27:13.531Z,8.90
2022-09-21T05:29:42.022Z,9.05
2022-09-21T05:32:21.401Z,9.27
2022-09-21T05:34:57.440Z,9.68
2022-09-21T05:37:38.268Z,8.55
2022-09-21T05:40:06.391Z,9.65
2022-09-21T05:42:34.517Z,10.27
2022-09-21T05:45:02.354Z,9.75
2022-09-21T05:47:40.261Z,8.25
2022-09-21T05:50:19.433Z,8.25
2022-09-21T05:53:05.264Z,8.13
2022-09-21T05:56:00.977Z,8.45
2022-09-21T05:58:46.706Z,8.30
2022-09-21T06:01:25.898Z,8.50
2022-09-21T06:03:54.197Z,9.55
2022-09-21T06:06:21.791Z,8.02
2022-09-21T06:08:49.113Z,7.57
2022-09-21T06:11:16.453Z,7.55
2022-09-21T06:13:43.920Z,7.82
2022-09-21T06:16:11.727Z,6.80
2022-09-21T06:18:40.420Z,6.32
2022-09-21T06:21:08.584Z,7.20
2022-09-21T06:23:36.358Z,7.10
2022-09-21T06:26:03.761Z,7.72
2022-09-21T06:28:31.160Z,7.05
2022-09-21T06:30:59.073Z,7.43
2022-09-21T06:33:26.596Z,6.78
2022-09-21T06:35:59.055Z,6.60
2022-09-21T06:38:28.125Z,6.85
2022-09-21T06:40:56.031Z,7.20
2022-09-21T06:43:23.292Z,9.48
2022-09-21T06:45:58.802Z,8.73
2022-09-21T06:48:27.715Z,8.23
2022-09-21T06:50:59.634Z,8.20
2022-09-21T06:53:28.285Z,8.48
2022-09-21T06:56:01.887Z,8.38
2022-09-21T06:58:31.262Z,8.45
2022-09-21T07:00:58.993Z,7.97
2022-09-21T07:03:26.343Z,8.38
2022-09-21T07:05:53.602Z,7.85
2022-09-21T07:11:09.072Z,17.63
2022-09-21T07:13:36.856Z,10.05
2022-09-21T07:16:09.351Z,8.23
2022-09-21T07:18:44.345Z,8.88
2022-09-21T07:21:12.480Z,9.27
2022-09-21T07:23:39.879Z,9.07
2022-09-21T07:26:09.729Z,10.32
2022-09-21T07:28:37.232Z,9.68
2022-09-21T07:31:14.135Z,9.40
2022-09-21T07:33:42.745Z,8.88
2022-09-21T07:36:11.031Z,9.73
2022-09-21T07:38:40.109Z,8.63
2022-09-21T07:41:08.334Z,7.65
2022-09-21T07:43:35.631Z,9.40
2022-09-21T07:46:02.896Z,8.88
2022-09-21T07:48:31.212Z,10.00
2022-09-21T07:51:06.457Z,9.85
2022-09-21T07:53:35.167Z,11.68
2022-09-21T07:56:04.485Z,11.48
2022-09-21T07:58:51.143Z,11.35
2022-09-21T08:01:18.450Z,12.35
2022-09-21T08:03:48.446Z,10.73
2022-09-21T08:06:15.646Z,10.57
2022-09-21T08:08:42.943Z,10.30
2022-09-21T08:11:11.961Z,9.75
2022-09-21T08:13:39.231Z,11.60
2022-09-21T08:16:07.456Z,10.80
2022-09-21T08:18:39.639Z,12.15
2022-09-21T08:21:08.393Z,17.85
2022-09-21T08:23:36.173Z,16.55
2022-09-21T08:26:06.853Z,12.35
2022-09-21T08:28:36.397Z,11.55
2022-09-21T08:31:11.455Z,10.88
2022-09-21T08:33:39.068Z,12.93
2022-09-21T08:36:06.982Z,12.35
2022-09-21T08:38:36.231Z,12.15
2022-09-21T08:41:16.507Z,13.10
2022-09-21T08:43:45.695Z,12.30
2022-09-21T08:46:17.890Z,12.07
2022-09-21T08:49:10.352Z,11.77
2022-09-21T08:51:45.472Z,12.23
2022-09-21T08:54:20.085Z,12.25
2022-09-21T08:57:04.478Z,12.55
2022-09-21T08:59:33.443Z,12.77
2022-09-21T09:02:20.632Z,11.45
2022-09-21T09:04:50.740Z,11.30
2022-09-21T09:07:41.418Z,12.00
2022-09-21T09:10:23.491Z,12.82
2022-09-21T09:13:09.382Z,10.77
2022-09-21T09:15:48.581Z,12.05
2022-09-21T09:18:33.541Z,13.20
2022-09-21T09:21:28.251Z,11.93
2022-09-21T09:24:06.808Z,11.27
2022-09-21T09:26:44.226Z,11.82
2022-09-21T09:29:38.713Z,12.00
2022-09-21T09:32:14.689Z,11.95
2022-09-21T09:34:58.047Z,13.13
2022-09-21T09:37:31.130Z,11.75
2022-09-21T09:40:01.459Z,12.07
2022-09-21T09:43:04.913Z,11.68
2022-09-21T09:45:39.815Z,10.52
2022-09-21T09:48:43.233Z,11.60
2022-09-21T09:51:12.885Z,12.00
2022-09-21T09:53:40.886Z,11.75
2022-09-21T09:56:10.910Z,11.90
2022-09-21T09:59:01.099Z,10.95
2022-09-21T10:01:42.785Z,11.85
2022-09-21T10:04:17.723Z,13.73
2022-09-21T10:06:47.006Z,13.35
2022-09-21T10:09:24.236Z,12.20
2022-09-21T10:11:53.395Z,11.95
2022-09-21T10:14:24.319Z,12.20
2022-09-21T10:16:53.016Z,12.05
2022-09-21T10:19:26.239Z,11.90
2022-09-21T10:22:00.955Z,11.05
2022-09-21T10:24:39.048Z,10.93
2022-09-21T10:27:11.826Z,10.85
2022-09-21T10:29:49.285Z,9.88
2022-09-21T10:32:16.561Z,9.52
2022-09-21T10:35:12.993Z,9.10
2022-09-21T10:37:45.636Z,9.27
2022-09-21T10:40:23.743Z,9.35
2022-09-21T10:42:59.441Z,9.35
2022-09-21T10:45:32.183Z,9.50
2022-09-21T10:48:18.295Z,8.43
2022-09-21T10:50:49.372Z,9.40
2022-09-21T10:53:25.553Z,9.60
2022-09-21T10:56:14.922Z,9.20
2022-09-21T10:59:12.707Z,9.52
2022-09-21T11:01:48.679Z,8.48
2022-09-21T11:04:39.689Z,8.13
2022-09-21T11:07:20.867Z,7.85
2022-09-21T11:09:58.753Z,7.78
2022-09-21T11:12:53.854Z,7.13
2022-09-21T11:15:38.546Z,6.53
2022-09-21T11:18:39.816Z,6.68
2022-09-21T11:21:20.591Z,6.20
2022-09-21T11:24:09.428Z,6.55
2022-09-21T11:26:59.382Z,5.90
2022-09-21T11:29:52.974Z,6.45
2022-09-21T11:32:43.248Z,6.75
2022-09-21T11:35:47.849Z,6.45
2022-09-21T11:38:43.845Z,5.25
2022-09-21T11:41:14.373Z,5.38
2022-09-21T11:44:02.850Z,5.20
2022-09-21T11:46:48.462Z,5.65
2022-09-21T11:49:40.899Z,5.50
2022-09-21T11:52:47.876Z,5.32
2022-09-21T11:55:48.400Z,4.97
2022-09-21T11:58:51.486Z,4.68
2022-09-21T12:01:38.546Z,4.40
2022-09-21T12:04:41.693Z,4.10
2022-09-21T12:07:27.831Z,4.30
2022-09-21T12:10:23.279Z,5.03
2022-09-21T12:13:08.012Z,5.10
2022-09-21T12:16:11.874Z,4.53
2022-09-21T12:18:56.238Z,5.30
2022-09-21T12:21:31.619Z,4.95
2022-09-21T12:24:12.473Z,4.50
2022-09-21T12:26:45.002Z,5.10
2022-09-21T12:29:12.167Z,4.70
2022-09-21T12:32:04.045Z,4.95
2022-09-21T12:34:44.505Z,5.00
2022-09-21T12:37:40.052Z,5.07
2022-09-21T12:40:27.989Z,5.00
2022-09-21T12:43:28.014Z,4.72
2022-09-21T12:46:03.929Z,4.45
2022-09-21T12:48:39.667Z,4.43
2022-09-21T12:51:30.397Z,4.40
2022-09-21T12:54:00.798Z,4.15
2022-09-21T12:56:50.245Z,4.70
2022-09-21T12:59:44.404Z,4.60
2022-09-21T13:02:33.741Z,4.90
2022-09-21T13:05:13.326Z,4.85
2022-09-21T13:08:04.983Z,4.97
2022-09-21T13:13:21.138Z,5.07
2022-09-21T13:15:50.236Z,5.68
2022-09-21T13:18:35.127Z,5.75
2022-09-21T13:21:19.736Z,5.90
2022-09-21T13:23:58.415Z,5.70
2022-09-21T13:26:53.755Z,5.40
2022-09-21T13:29:20.961Z,5.10
2022-09-21T13:32:00.126Z,5.30
2022-09-21T13:34:35.423Z,5.55
2022-09-21T13:37:11.881Z,5.22
2022-09-21T13:39:50.793Z,5.03
2022-09-21T13:42:30.342Z,4.88
2022-09-21T13:45:04.717Z,5.90
2022-09-21T13:47:34.982Z,5.30
2022-09-21T13:50:23.293Z,5.22
2022-09-21T13:52:59.212Z,5.65
2022-09-21T13:55:31.259Z,5.60
2022-09-21T13:58:27.541Z,5.30
2022-09-21T14:01:05.504Z,5.07
2022-09-21T14:03:39.683Z,5.53
2022-09-21T14:06:21.784Z,5.60
2022-09-21T14:08:59.676Z,5.32
2022-09-21T14:11:33.983Z,5.28
2022-09-21T14:14:22.187Z,5.15
2022-09-21T14:16:58.099Z,5.25
2022-09-21T14:19:29.833Z,5.28
2022-09-21T14:22:06.063Z,5.15
2022-09-21T14:24:39.390Z,5.10
2022-09-21T14:27:36.979Z,5.40
2022-09-21T14:30:20.141Z,5.47
2022-09-21T14:32:59.695Z,5.88
2022-09-21T14:35:33.714Z,6.35
2022-09-21T14:38:11.092Z,5.70
2022-09-21T14:40:42.400Z,5.47
2022-09-21T14:43:15.712Z,5.50
2022-09-21T14:46:12.054Z,5.53
2022-09-21T14:49:13.071Z,5.60
2022-09-21T14:52:22.241Z,5.60
2022-09-21T14:55:29.469Z,6.07
2022-09-21T15:00:45.343Z,5.50
2022-09-21T15:03:24.481Z,5.68
2022-09-21T15:06:26.814Z,5.82
2022-09-21T15:09:27.201Z,6.20
2022-09-21T15:12:03.751Z,6.20
2022-09-21T15:14:30.946Z,6.32
2022-09-21T15:16:58.383Z,5.85
2022-09-21T15:19:29.849Z,6.40
2022-09-21T15:24:36.910Z,5.57
2022-09-21T15:27:15.919Z,5.10
2022-09-21T15:29:49.144Z,5.30
2022-09-21T15:32:27.894Z,5.68
2022-09-21T15:35:01.530Z,5.88
2022-09-21T15:37:30.588Z,5.55
2022-09-21T15:40:08.260Z,5.07
2022-09-21T15:42:43.856Z,4.85
2022-09-21T15:45:17.091Z,4.93
2022-09-21T15:47:45.465Z,5.40
2022-09-21T15:50:17.429Z,4.93
2022-09-21T15:53:09.265Z,5.05
2022-09-21T15:55:36.745Z,5.10
2022-09-21T15:58:37.418Z,5.07
2022-09-21T16:01:17.667Z,4.97
2022-09-21T16:03:45.283Z,5.25
2022-09-21T16:06:21.442Z,5.05
2022-09-21T16:08:48.813Z,5.00
2022-09-21T16:11:15.943Z,4.80
2022-09-21T16:14:03.031Z,4.90
2022-09-21T16:16:30.411Z,5.13
2022-09-21T16:19:00.308Z,5.00
2022-09-21T16:21:34.320Z,5.10
2022-09-21T16:24:23.092Z,5.03
2022-09-21T16:27:00.380Z,5.00
2022-09-21T16:29:49.948Z,4.75
2022-09-21T16:32:26.648Z,4.80
2022-09-21T16:35:14.111Z,5.53
2022-09-21T16:37:42.225Z,5.03
2022-09-21T16:40:10.186Z,5.03
2022-09-21T16:42:38.523Z,4.60
2022-09-21T16:45:16.829Z,4.78
2022-09-21T16:47:48.059Z,4.65
2022-09-21T16:50:19.104Z,5.03
2022-09-21T16:52:48.639Z,4.68
2022-09-21T16:55:15.848Z,5.50
2022-09-21T16:57:43.011Z,5.50
2022-09-21T17:00:12.303Z,5.30
2022-09-21T17:02:45.284Z,5.68
2022-09-21T17:05:18.201Z,5.07
2022-09-21T17:07:57.316Z,5.55
2022-09-21T17:10:29.328Z,5.80
2022-09-21T17:12:57.249Z,5.75
2022-09-21T17:15:25.190Z,5.70
2022-09-21T17:17:52.469Z,5.80
2022-09-21T17:20:27.586Z,6.05
2022-09-21T17:22:54.749Z,5.90
2022-09-21T17:25:21.944Z,5.68
2022-09-21T17:27:49.147Z,6.50
2022-09-21T17:30:17.065Z,5.90
2022-09-21T17:32:47.798Z,5.80
2022-09-21T17:35:19.858Z,6.22
2022-09-21T17:37:47.178Z,5.90
2022-09-21T17:40:14.975Z,6.60
2022-09-21T17:42:46.628Z,6.82
2022-09-21T17:45:32.686Z,6.80
2022-09-21T17:48:00.166Z,6.75
2022-09-21T17:50:28.480Z,7.43
2022-09-21T17:53:15.498Z,7.18
2022-09-21T17:55:52.474Z,6.50
2022-09-21T17:58:35.044Z,6.32
2022-09-21T18:01:07.898Z,5.78
2022-09-21T18:03:41.256Z,7.05
2022-09-21T18:06:10.306Z,6.47
2022-09-21T18:08:39.845Z,6.57
2022-09-21T18:11:46.676Z,6.15
2022-09-21T18:14:34.275Z,6.30
2022-09-21T18:17:28.633Z,6.43
2022-09-21T18:20:34.355Z,6.32
2022-09-21T18:23:10.597Z,6.50
2022-09-21T18:25:47.860Z,6.65
2022-09-21T18:28:23.730Z,6.65
2022-09-21T18:31:16.487Z,6.93
2022-09-21T18:33:56.852Z,7.35
2022-09-21T18:36:39.589Z,7.15
2022-09-21T18:39:38.285Z,6.65
2022-09-21T18:42:40.459Z,6.60
2022-09-21T18:45:17.238Z,7.40
2022-09-21T18:48:05.101Z,6.22
2022-09-21T18:50:56.815Z,6.15
2022-09-21T18:53:34.074Z,6.22
2022-09-21T18:56:01.642Z,6.13
2022-09-21T18:58:30.662Z,5.38
2022-09-21T19:00:58.369Z,6.57
2022-09-21T19:03:25.890Z,5.55
2022-09-21T19:06:27.410Z,5.65
2022-09-21T19:09:24.085Z,5.13
2022-09-21T19:12:20.566Z,5.75
2022-09-21T19:15:13.575Z,5.95
2022-09-21T19:18:13.559Z,5.80
2022-09-21T19:20:55.073Z,5.15
2022-09-21T19:23:55.070Z,4.45
2022-09-21T19:26:30.257Z,5.05
2022-09-21T19:29:19.142Z,5.47
2022-09-21T19:31:46.480Z,4.85
2022-09-21T19:34:16.747Z,4.88
2022-09-21T19:36:45.189Z,5.05
2022-09-21T19:39:12.647Z,4.50
2022-09-21T19:41:49.253Z,4.57
2022-09-21T19:44:19.572Z,4.70
2022-09-21T19:46:53.923Z,4.40
2022-09-21T19:49:23.918Z,5.03
2022-09-21T19:51:53.265Z,4.45
2022-09-21T19:54:44.409Z,4.10
2022-09-21T19:57:35.840Z,4.90
2022-09-21T20:00:08.915Z,4.15
2022-09-21T20:03:01.056Z,4.75
2022-09-21T20:05:47.966Z,4.40
2022-09-21T20:08:21.155Z,4.43
2022-09-21T20:11:30.371Z,6.55
2022-09-21T20:14:13.085Z,6.38
2022-09-21T20:16:46.386Z,4.70
2022-09-21T20:19:31.162Z,4.32
2022-09-21T20:22:05.041Z,4.50
2022-09-21T20:24:46.823Z,5.10
2022-09-21T20:27:34.661Z,4.72
2022-09-21T20:30:08.271Z,4.53
2022-09-21T20:32:37.717Z,4.35
2022-09-21T20:35:29.137Z,4.07
2022-09-21T20:38:01.977Z,4.65
2022-09-21T20:40:32.432Z,4.75
2022-09-21T20:43:01.311Z,4.18
2022-09-21T20:45:30.047Z,4.20
2022-09-21T20:47:57.493Z,4.43
2022-09-21T20:50:30.440Z,4.50
2022-09-21T20:52:57.751Z,3.75
2022-09-21T20:55:25.337Z,4.28
2022-09-21T20:57:52.680Z,4.63
2022-09-21T21:00:19.989Z,3.95
2022-09-21T21:02:47.280Z,4.07
2022-09-21T21:05:14.533Z,4.40
2022-09-21T21:07:44.340Z,4.43
2022-09-21T21:10:16.595Z,4.53
2022-09-21T21:12:43.813Z,4.15
2022-09-21T21:15:12.599Z,4.32
2022-09-21T21:17:40.882Z,4.40
2022-09-21T21:20:09.497Z,4.75
2022-09-21T21:22:37.013Z,4.70
2022-09-21T21:25:04.716Z,4.70
2022-09-21T21:27:32.162Z,4.50
2022-09-21T21:29:59.765Z,5.00
2022-09-21T21:32:27.820Z,4.57
2022-09-21T21:34:56.698Z,4.63
2022-09-21T21:37:25.592Z,4.90
2022-09-21T21:39:54.147Z,4.70
2022-09-21T21:42:22.213Z,5.07
2022-09-21T21:44:52.324Z,4.70
2022-09-21T21:47:39.637Z,5.90
2022-09-21T21:50:07.639Z,4.82
2022-09-21T21:52:34.920Z,5.32
2022-09-21T21:55:02.589Z,5.82
2022-09-21T21:57:30.026Z,4.90
2022-09-21T21:59:57.312Z,5.05
2022-09-21T22:02:24.531Z,5.32
2022-09-21T22:04:52.876Z,5.22
2022-09-21T22:07:20.117Z,4.93
2022-09-21T22:09:47.715Z,5.25
2022-09-21T22:12:16.015Z,4.40
2022-09-21T22:14:46.586Z,5.00
2022-09-21T22:17:14.021Z,5.05
2022-09-21T22:19:41.329Z,4.82
2022-09-21T22:22:09.038Z,5.10
2022-09-21T22:24:36.291Z,5.10
2022-09-21T22:27:03.451Z,5.55
2022-09-21T22:29:30.729Z,4.82
2022-09-21T22:31:58.356Z,5.82
2022-09-21T22:34:25.753Z,5.20
2022-09-21T22:36:53.955Z,5.40
2022-09-21T22:39:21.651Z,5.40
2022-09-21T22:41:49.066Z,5.70
2022-09-21T22:44:16.284Z,6.03
2022-09-21T22:46:43.658Z,5.30
2022-09-21T22:49:10.972Z,5.85
2022-09-21T22:51:38.317Z,4.90
2022-09-21T22:54:06.167Z,4.95
2022-09-21T22:56:34.206Z,5.07
2022-09-21T22:59:03.915Z,6.88
2022-09-21T23:01:36.061Z,6.35
2022-09-21T23:04:09.914Z,5.50
2022-09-21T23:06:39.618Z,5.03
2022-09-21T23:09:12.425Z,5.40
2022-09-21T23:11:43.391Z,5.22
2022-09-21T23:14:11.608Z,5.28
2022-09-21T23:16:39.619Z,5.20
2022-09-21T23:19:15.455Z,4.63
2022-09-21T23:21:45.787Z,4.88
2022-09-21T23:24:13.690Z,5.43
2022-09-21T23:26:41.577Z,5.80
2022-09-21T23:29:14.941Z,4.78
2022-09-21T23:31:45.549Z,4.80
2022-09-21T23:34:14.590Z,4.60
2022-09-21T23:36:42.954Z,4.65
2022-09-21T23:39:12.633Z,4.63
2022-09-21T23:41:40.598Z,4.60
2022-09-21T23:44:08.403Z,4.55
2022-09-21T23:46:38.257Z,4.38
2022-09-21T23:49:06.415Z,4.50
2022-09-21T23:51:34.644Z,4.10
2022-09-21T23:54:02.486Z,4.57
2022-09-21T23:56:30.416Z,4.22
2022-09-21T23:58:58.326Z,4.05
